Depue Junction, Illinois
Current Conditions -  °F | °C
As of 2:35 PM on Tuesday 25 Nov 2014 (Local Time) from KVYS Reporting Station
Overcast Overcast  
Wind Chill: 16°   Ceiling: 1500
Heat Index: 25°   Visibility: 10mi
Dew Point: 19°   Wind: 8mph
Humidity: 79%   Direction: 250°WSW
Pressure: 30.17"   Gusts: NA
Location:  41.3278°N, 89.2998°W
Report Text: KVYS 252035Z AUTO 25007KT 10SM OVC015 M04/M07 A3017 RMK AO2 T10411072
Loading
Personal Weather Stations






























Interactive Weather Map New forecast layout! Learn more

10-Day Weather Forecast

Advertisements
Track Severe Weather on mobile